Rachael Burton — WX9277 — position and weather

sailwx.info

Track history (hours):
 
Tides and Currents Weather Stations Pressure Air Temp Water Temp Dewpoint Dewpoint Depression Visibility Wind Speed Wind Dir Waves Ship Positions

Rachael Burton

Owner: Alpha VesselCo, LLC, Suffolk, VA. More information available from US FCC via Universal Licensing System and Coast Guard Vessel Documentation Center.

Last reported at 2018-Jun-22 05:28 UTC. Time now 2018-Jun-22 05:33 UTC.
Position N 29°49' W 092°08'.

Length 49 m; draft 3.5 m.

Type: Fishing. MMSI: 367088210.

Date/timePositionNaut miles runAvg speedWind from/ knotsBaromVisibWave heightAir tempDewpointWater temp
2018-Jun-22 05:28N 29°49' W 092°08'0 0.0
2018-Jun-22 04:58N 29°49' W 092°08'0 0.0
2018-Jun-22 04:28N 29°49' W 092°08'0 0.0
2018-Jun-22 03:58N 29°49' W 092°08'0 0.0
2018-Jun-22 03:28N 29°49' W 092°08'0 0.0
2018-Jun-22 02:58N 29°49' W 092°08'0 0.0
2018-Jun-22 02:28N 29°49' W 092°08'0 0.0
2018-Jun-22 01:58N 29°49' W 092°08'0 0.0
2018-Jun-22 01:28N 29°49' W 092°08'0 0.0
2018-Jun-22 00:58N 29°49' W 092°08'0 0.2
2018-Jun-22 00:30N 29°49' W 092°08'3 5.0
2018-Jun-22 00:00N 29°47' W 092°09'3 6.2
2018-Jun-21 23:30N 29°45' W 092°12'5 9.5
2018-Jun-21 23:01N 29°41' W 092°15'2 0.2
2018-Jun-21 12:59N 29°40' W 092°15'4 7.7
2018-Jun-21 12:30N 29°43' W 092°15'4 8.8
2018-Jun-21 12:00N 29°46' W 092°11'3 5.5
2018-Jun-21 11:30N 29°48' W 092°08'2 2.9
2018-Jun-21 10:59N 29°49' W 092°08'0 0.0
2018-Jun-21 10:29N 29°49' W 092°08'0 0.0
2018-Jun-21 09:59N 29°49' W 092°08'0 0.0
2018-Jun-21 09:29N 29°49' W 092°08'0 0.0
2018-Jun-21 08:59N 29°49' W 092°08'0 0.0
2018-Jun-21 08:29N 29°49' W 092°08'0 0.0
2018-Jun-21 07:59N 29°49' W 092°08'0 0.0
2018-Jun-21 07:29N 29°49' W 092°08'0 0.0
2018-Jun-21 06:59N 29°49' W 092°08'0 0.0
2018-Jun-21 06:29N 29°49' W 092°08'0 0.0
2018-Jun-21 05:59N 29°49' W 092°08'0 0.0
2018-Jun-21 05:29N 29°49' W 092°08'0 0.0
2018-Jun-21 04:59N 29°49' W 092°08'0 0.0
2018-Jun-21 04:29N 29°49' W 092°08'1 1.1
2018-Jun-21 04:00N 29°49' W 092°08'3 5.3
2018-Jun-21 03:30N 29°47' W 092°10'5 9.8
2018-Jun-21 03:00N 29°44' W 092°15'4 0.7
2018-Jun-20 21:18N 29°40' W 092°15'3 9.6
2018-Jun-20 21:00N 29°43' W 092°15'5 9.1
2018-Jun-20 20:30N 29°46' W 092°11'3 6.3
2018-Jun-20 20:00N 29°48' W 092°08'2 2.6
2018-Jun-20 19:25N 29°49' W 092°08'0 0.2
2018-Jun-20 18:58N 29°49' W 092°08'0 0.0
2018-Jun-20 18:28N 29°49' W 092°08'0 0.0
2018-Jun-20 17:58N 29°49' W 092°08'0 0.0
2018-Jun-20 17:28N 29°49' W 092°08'0 0.0
2018-Jun-20 16:58N 29°49' W 092°08'0 0.0
2018-Jun-20 16:28N 29°49' W 092°08'0 0.0
2018-Jun-20 15:58N 29°49' W 092°08'0 0.2
2018-Jun-20 15:30N 29°49' W 092°08'0 0.0
2018-Jun-20 15:00N 29°49' W 092°08'0 0.0
2018-Jun-20 14:30N 29°49' W 092°08'0 0.0
2018-Jun-20 14:00N 29°49' W 092°08'0 0.0
2018-Jun-20 13:30N 29°49' W 092°08'0 0.0
2018-Jun-20 13:00N 29°49' W 092°08'0 0.0
2018-Jun-20 12:30N 29°49' W 092°08'0 0.0
2018-Jun-20 11:57N 29°49' W 092°08'0 0.0
2018-Jun-20 11:27N 29°49' W 092°08'0 0.0
2018-Jun-20 10:57N 29°49' W 092°08'0 0.0
2018-Jun-20 10:27N 29°49' W 092°08'0 0.0
2018-Jun-20 10:00N 29°49' W 092°08'0 0.0
2018-Jun-20 09:30N 29°49' W 092°08'0 0.0
2018-Jun-20 09:00N 29°49' W 092°08'0 0.0
2018-Jun-20 08:30N 29°49' W 092°08'0 0.0
2018-Jun-20 08:00N 29°49' W 092°08'0 0.0
2018-Jun-20 07:30N 29°49' W 092°08'0 0.0
2018-Jun-20 07:00N 29°49' W 092°08'0 0.0
2018-Jun-20 06:30N 29°49' W 092°08'0 0.0
2018-Jun-20 06:00N 29°49' W 092°08'0 0.0
2018-Jun-20 05:30N 29°49' W 092°08'0 0.0
2018-Jun-20 05:00N 29°49' W 092°08'0 0.0
2018-Jun-20 04:30N 29°49' W 092°08'0 0.0
2018-Jun-20 04:00N 29°49' W 092°08'0 0.0
2018-Jun-20 03:30N 29°49' W 092°08'0 0.0
2018-Jun-20 03:00N 29°49' W 092°08'0 0.0
2018-Jun-20 02:30N 29°49' W 092°08'0 0.0
2018-Jun-20 01:57N 29°49' W 092°08'0 0.0
2018-Jun-20 01:30N 29°49' W 092°08'0 0.0
2018-Jun-20 01:00N 29°49' W 092°08'0 0.0
2018-Jun-20 00:24N 29°49' W 092°08'0 0.0
2018-Jun-20 00:00N 29°49' W 092°08'0 0.0
2018-Jun-19 23:30N 29°49' W 092°08'0 0.0
2018-Jun-19 23:00N 29°49' W 092°08'0 0.0
2018-Jun-19 22:30N 29°49' W 092°08'0 0.0
2018-Jun-19 22:00N 29°49' W 092°08'0 0.0
2018-Jun-19 21:30N 29°49' W 092°08'0 0.0
2018-Jun-19 20:57N 29°49' W 092°08'0 0.0
2018-Jun-19 20:30N 29°49' W 092°08'0 0.0
2018-Jun-19 20:00N 29°49' W 092°08'0 0.0
2018-Jun-19 19:30N 29°49' W 092°08'0 0.0
2018-Jun-19 19:00N 29°49' W 092°08'0 0.0
2018-Jun-19 18:30N 29°49' W 092°08'0 0.0
2018-Jun-19 17:57N 29°49' W 092°08'0 0.0
2018-Jun-19 17:30N 29°49' W 092°08'0 0.0
2018-Jun-19 17:00N 29°49' W 092°08'0 0.0
2018-Jun-19 16:30N 29°49' W 092°08'0 0.0
2018-Jun-19 16:00N 29°49' W 092°08'0 0.0
2018-Jun-19 15:30N 29°49' W 092°08'0 0.0
2018-Jun-19 15:00N 29°49' W 092°08'0 0.0
2018-Jun-19 14:30N 29°49' W 092°08'0 0.0
2018-Jun-19 14:00N 29°49' W 092°08'0 0.0
2018-Jun-19 13:30N 29°49' W 092°08'0 0.0
2018-Jun-19 13:00N 29°49' W 092°08'0 0.0
2018-Jun-19 12:30N 29°49' W 092°08'0 0.0
2018-Jun-19 11:57N 29°49' W 092°08'0 0.0
2018-Jun-19 11:30N 29°49' W 092°08'0 0.0
2018-Jun-19 10:57N 29°49' W 092°08'0 0.0
2018-Jun-19 10:30N 29°49' W 092°08'0 0.0
2018-Jun-19 09:57N 29°49' W 092°08'0 0.0
2018-Jun-19 09:30N 29°49' W 092°08'0 0.0
2018-Jun-19 08:57N 29°49' W 092°08'0 0.0
2018-Jun-19 08:30N 29°49' W 092°08'0 0.0
2018-Jun-19 07:57N 29°49' W 092°08'0 0.0
2018-Jun-19 07:30N 29°49' W 092°08'0 0.0
2018-Jun-19 07:00N 29°49' W 092°08'0 0.0
2018-Jun-19 06:27N 29°49' W 092°08'0 0.0
2018-Jun-19 06:00N 29°49' W 092°08'0 0.0
2018-Jun-19 05:27N 29°49' W 092°08'0 0.0
2018-Jun-19 04:57N 29°49' W 092°08'0 0.0
2018-Jun-19 04:27N 29°49' W 092°08'0 0.0
2018-Jun-19 03:51N 29°49' W 092°08'0 0.0
2018-Jun-19 03:27N 29°49' W 092°08'0 0.0
2018-Jun-19 02:57N 29°49' W 092°08'0 0.0
2018-Jun-19 02:30N 29°49' W 092°08'0 0.0
2018-Jun-19 01:56N 29°49' W 092°08'0 0.0
2018-Jun-19 01:27N 29°49' W 092°08'0 0.0
2018-Jun-19 00:57N 29°49' W 092°08'0 0.0
2018-Jun-19 00:30N 29°49' W 092°08'0 0.0
2018-Jun-19 00:00N 29°49' W 092°08'0 0.0
2018-Jun-18 23:30N 29°49' W 092°08'0 0.0
2018-Jun-18 23:00N 29°49' W 092°08'0 0.0
2018-Jun-18 22:30N 29°49' W 092°08'0 0.0
2018-Jun-18 22:00N 29°49' W 092°08'0 0.0
2018-Jun-18 21:30N 29°49' W 092°08'0 0.0
2018-Jun-18 21:00N 29°49' W 092°08'0 0.0
2018-Jun-18 20:30N 29°49' W 092°08'0 0.0
2018-Jun-18 20:00N 29°49' W 092°08'0 0.0
2018-Jun-18 19:30N 29°49' W 092°08'0 0.0
2018-Jun-18 19:00N 29°49' W 092°08'0 0.0
2018-Jun-18 18:30N 29°49' W 092°08'0 0.0
2018-Jun-18 18:00N 29°49' W 092°08'0 0.0
2018-Jun-18 17:30N 29°49' W 092°08'0 0.0
2018-Jun-18 17:00N 29°49' W 092°08'0 0.0
2018-Jun-18 16:27N 29°49' W 092°08'0 0.0
2018-Jun-18 15:59N 29°49' W 092°08'0 0.0
2018-Jun-18 15:30N 29°49' W 092°08'0 0.0
2018-Jun-18 15:00N 29°49' W 092°08'0 0.0
2018-Jun-18 14:30N 29°49' W 092°08'0 0.0
2018-Jun-18 14:00N 29°49' W 092°08'0 0.0
2018-Jun-18 13:29N 29°49' W 092°08'0 0.0
2018-Jun-18 12:59N 29°49' W 092°08'0 0.0
2018-Jun-18 12:29N 29°49' W 092°08'0 0.0
2018-Jun-18 11:59N 29°49' W 092°08'0 0.0
2018-Jun-18 11:24N 29°49' W 092°08'0 0.0
2018-Jun-18 10:59N 29°49' W 092°08'0 0.0
2018-Jun-18 10:29N 29°49' W 092°08'0 0.0
2018-Jun-18 10:00N 29°49' W 092°08'0 0.0
2018-Jun-18 09:29N 29°49' W 092°08'0 0.0
2018-Jun-18 08:59N 29°49' W 092°08'0 0.0
2018-Jun-18 08:29N 29°49' W 092°08'0 0.0
2018-Jun-18 07:59N 29°49' W 092°08'0 0.0
2018-Jun-18 07:30N 29°49' W 092°08'0 0.0
2018-Jun-18 06:59N 29°49' W 092°08'0 0.0
2018-Jun-18 06:29N 29°49' W 092°08'0 0.0
2018-Jun-18 06:00N 29°49' W 092°08'0 0.0
2018-Jun-18 05:26N 29°49' W 092°08'0 0.0
2018-Jun-18 04:59N 29°49' W 092°08'0 0.0
2018-Jun-18 04:30N 29°49' W 092°08'0 0.0
2018-Jun-18 03:59N 29°49' W 092°08'0 0.0
2018-Jun-18 03:29N 29°49' W 092°08'0 0.0
2018-Jun-18 02:59N 29°49' W 092°08'0 0.0
2018-Jun-18 02:29N 29°49' W 092°08'0 0.0
2018-Jun-18 01:59N 29°49' W 092°08'0 0.0
2018-Jun-18 01:30N 29°49' W 092°08'0 0.0
2018-Jun-18 00:59N 29°49' W 092°08'0 0.0
2018-Jun-18 00:29N 29°49' W 092°08'0 0.0
2018-Jun-18 00:00N 29°49' W 092°08'0 0.0
2018-Jun-17 23:29N 29°49' W 092°08'0 0.0
2018-Jun-17 22:56N 29°49' W 092°08'0 0.0
2018-Jun-17 22:29N 29°49' W 092°08'0 0.0
2018-Jun-17 21:59N 29°49' W 092°08'0 0.0
2018-Jun-17 21:29N 29°49' W 092°08'0 0.0
2018-Jun-17 20:59N 29°49' W 092°08'0 0.0
2018-Jun-17 20:29N 29°49' W 092°08'0 0.0
2018-Jun-17 19:59N 29°49' W 092°08'0 0.0
2018-Jun-17 19:26N 29°49' W 092°08'0 0.0
2018-Jun-17 18:59N 29°49' W 092°08'0 0.0
2018-Jun-17 18:29N 29°49' W 092°08'0 0.0
2018-Jun-17 17:59N 29°49' W 092°08'0 0.0
2018-Jun-17 17:29N 29°49' W 092°08'0 0.0
2018-Jun-17 16:59N 29°49' W 092°08'0 0.0
2018-Jun-17 16:29N 29°49' W 092°08'0 0.0
2018-Jun-17 15:59N 29°49' W 092°08'0 0.0
2018-Jun-17 15:29N 29°49' W 092°08'0 0.0
2018-Jun-17 14:59N 29°49' W 092°08'0 0.0
2018-Jun-17 14:29N 29°49' W 092°08'0 0.0
2018-Jun-17 13:59N 29°49' W 092°08'0 0.0
2018-Jun-17 13:29N 29°49' W 092°08'0 0.0
2018-Jun-17 12:56N 29°49' W 092°08'0 0.0
2018-Jun-17 12:29N 29°49' W 092°08'0 0.0
2018-Jun-17 11:59N 29°49' W 092°08'0 0.0
2018-Jun-17 11:29N 29°49' W 092°08'0 0.0
2018-Jun-17 10:59N 29°49' W 092°08'0 0.0
2018-Jun-17 10:29N 29°49' W 092°08'0 0.0
2018-Jun-17 09:59N 29°49' W 092°08'0 0.0
2018-Jun-17 09:29N 29°49' W 092°08'0 0.0
2018-Jun-17 08:59N 29°49' W 092°08'0 0.0
2018-Jun-17 08:29N 29°49' W 092°08'0 0.0
2018-Jun-17 07:59N 29°49' W 092°08'0 0.0
2018-Jun-17 07:29N 29°49' W 092°08'0 0.0
2018-Jun-17 06:59N 29°49' W 092°08'0 0.0
2018-Jun-17 06:29N 29°49' W 092°08'0 0.0
2018-Jun-17 05:59N 29°49' W 092°08'0 0.0
2018-Jun-17 05:29N 29°49' W 092°08'0 0.0
2018-Jun-17 04:59N 29°49' W 092°08'0 0.0
2018-Jun-17 04:29N 29°49' W 092°08'0 0.0
2018-Jun-17 03:59N 29°49' W 092°08'0 0.0
2018-Jun-17 03:29N 29°49' W 092°08'0 0.0
2018-Jun-17 02:59N 29°49' W 092°08'0 0.0
2018-Jun-17 02:29N 29°49' W 092°08'0 0.0
2018-Jun-17 01:59N 29°49' W 092°08'0 0.0
2018-Jun-17 01:29N 29°49' W 092°08'0 0.0
2018-Jun-17 00:56N 29°49' W 092°08'0 0.0
2018-Jun-17 00:29N 29°49' W 092°08'0 0.0
2018-Jun-16 23:59N 29°49' W 092°08'0 0.0
2018-Jun-16 23:29N 29°49' W 092°08'0 0.0
2018-Jun-16 22:59N 29°49' W 092°08'0 0.0
2018-Jun-16 22:29N 29°49' W 092°08'0 0.0
2018-Jun-16 21:59N 29°49' W 092°08'0 0.0
2018-Jun-16 21:29N 29°49' W 092°08'0 0.0
2018-Jun-16 20:59N 29°49' W 092°08'0 0.0
2018-Jun-16 20:29N 29°49' W 092°08'0 0.0
2018-Jun-16 19:59N 29°49' W 092°08'0 0.0
2018-Jun-16 19:26N 29°49' W 092°08'0 0.0
2018-Jun-16 18:59N 29°49' W 092°08'0 0.0
2018-Jun-16 18:29N 29°49' W 092°08'0 0.0
2018-Jun-16 17:59N 29°49' W 092°08'0 0.0
2018-Jun-16 17:29N 29°49' W 092°08'0 0.0
2018-Jun-16 16:59N 29°49' W 092°08'0 0.0
2018-Jun-16 16:29N 29°49' W 092°08'0 0.0
2018-Jun-16 15:59N 29°49' W 092°08'0 0.0
2018-Jun-16 15:29N 29°49' W 092°08'0 0.0
2018-Jun-16 14:59N 29°49' W 092°08'0 0.0
2018-Jun-16 14:29N 29°49' W 092°08'0 0.0
2018-Jun-16 13:59N 29°49' W 092°08'0 0.0
2018-Jun-16 13:29N 29°49' W 092°08'0 0.0
2018-Jun-16 12:59N 29°49' W 092°08'0 0.0
2018-Jun-16 12:26N 29°49' W 092°08'0 0.0
2018-Jun-16 11:59N 29°49' W 092°08'0 0.0
2018-Jun-16 11:29N 29°49' W 092°08'0 0.0
2018-Jun-16 09:14N 29°49' W 092°08'0 0.0
2018-Jun-16 08:08N 29°49' W 092°08'0 0.0
2018-Jun-16 07:44N 29°49' W 092°08'0 0.0
2018-Jun-16 06:14N 29°49' W 092°08'0 0.0
2018-Jun-16 05:44N 29°49' W 092°08'0 0.0
2018-Jun-16 04:02N 29°49' W 092°08'0 0.1
2018-Jun-16 03:56N 29°49' W 092°08'0 0.0
2018-Jun-16 03:26N 29°49' W 092°08'0 0.0
2018-Jun-16 02:50N 29°49' W 092°08'0 0.0
2018-Jun-16 02:26N 29°49' W 092°08'0 0.0
2018-Jun-16 01:59N 29°49' W 092°08'0 0.0
2018-Jun-16 01:29N 29°49' W 092°08'0 0.0
2018-Jun-16 00:59N 29°49' W 092°08'0 0.0
2018-Jun-16 00:29N 29°49' W 092°08'0 0.0
2018-Jun-15 23:56N 29°49' W 092°08'0 0.0
2018-Jun-15 23:29N 29°49' W 092°08'0 0.0
2018-Jun-15 22:59N 29°49' W 092°08'0 0.0
2018-Jun-15 22:26N 29°49' W 092°08'0 0.0
2018-Jun-15 21:56N 29°49' W 092°08'0 0.0
2018-Jun-15 21:29N 29°49' W 092°08'0 0.0
2018-Jun-15 20:59N 29°49' W 092°08'0 0.0
2018-Jun-15 20:29N 29°49' W 092°08'0 0.0
2018-Jun-15 19:59N 29°49' W 092°08'0 0.0
2018-Jun-15 19:29N 29°49' W 092°08'0 0.0
2018-Jun-15 18:59N 29°49' W 092°08'1 2.4
2018-Jun-15 18:30N 29°48' W 092°08'3 5.3
2018-Jun-15 18:00N 29°46' W 092°10'4 8.9
2018-Jun-15 17:30N 29°44' W 092°15'4 7.8
2018-Jun-15 16:58N 29°40' W 092°15'2 0.5
2018-Jun-15 12:00N 29°38' W 092°16'4 7.1
2018-Jun-15 11:30N 29°41' W 092°15'4 7.7
2018-Jun-15 11:00N 29°45' W 092°13'4 8.0
2018-Jun-15 10:30N 29°47' W 092°10'2 4.9
2018-Jun-15 10:00N 29°49' W 092°08'1 1.0
2018-Jun-15 09:30N 29°49' W 092°08'0 0.0
2018-Jun-15 09:00N 29°49' W 092°08'0 0.0
2018-Jun-15 08:30N 29°49' W 092°08'0 0.0
2018-Jun-15 08:00N 29°49' W 092°08'0 0.0
2018-Jun-15 07:30N 29°49' W 092°08'0 0.0
2018-Jun-15 07:00N 29°49' W 092°08'0 0.2
2018-Jun-15 06:23N 29°49' W 092°08'0 0.0
2018-Jun-15 05:59N 29°49' W 092°08'0 0.0
2018-Jun-15 05:29N 29°49' W 092°08'0 0.0
2018-Jun-15 04:59N 29°49' W 092°08'0 0.0
2018-Jun-15 04:29N 29°49' W 092°08'0 0.0
2018-Jun-15 03:59N 29°49' W 092°08'0 0.0
2018-Jun-15 03:29N 29°49' W 092°08'0 0.0
2018-Jun-15 02:59N 29°49' W 092°08'0 0.0
2018-Jun-15 02:29N 29°49' W 092°08'0 0.0
2018-Jun-15 01:59N 29°49' W 092°08'0 0.0
2018-Jun-15 01:29N 29°49' W 092°08'0 0.0
2018-Jun-15 00:56N 29°49' W 092°08'0 0.0
2018-Jun-15 00:29N 29°49' W 092°08'0 0.0
2018-Jun-14 23:59N 29°49' W 092°08'0 0.0
2018-Jun-14 23:29N 29°49' W 092°08'2 3.5
2018-Jun-14 23:01N 29°48' W 092°08'3 5.8
2018-Jun-14 22:30N 29°46' W 092°11'4 8.0
2018-Jun-14 22:00N 29°43' W 092°15'9 0.3
2018-Jun-13 16:05N 29°42' W 092°04'2 7.8
2018-Jun-13 15:48N 29°43' W 092°06'2 8.3
2018-Jun-13 15:30N 29°45' W 092°07'2 4.9
2018-Jun-13 15:00N 29°48' W 092°08'2 1.2
2018-Jun-13 13:44N 29°49' W 092°08'0 0.0
2018-Jun-13 13:26N 29°49' W 092°08'0 0.0
2018-Jun-13 12:59N 29°49' W 092°08'0 0.0
2018-Jun-13 12:29N 29°49' W 092°08'0 0.0
2018-Jun-13 11:59N 29°49' W 092°08'0 0.0
2018-Jun-13 11:29N 29°49' W 092°08'0 0.0
2018-Jun-13 10:59N 29°49' W 092°08'0 0.0
2018-Jun-13 10:29N 29°49' W 092°08'0 0.0
2018-Jun-13 09:56N 29°49' W 092°08'0 0.0
2018-Jun-13 09:26N 29°49' W 092°08'0 0.0
2018-Jun-13 08:56N 29°49' W 092°08'0 0.0
2018-Jun-13 08:29N 29°49' W 092°08'0 0.0
2018-Jun-13 07:56N 29°49' W 092°08'0 0.3
2018-Jun-13 07:30N 29°49' W 092°08'0 0.0
2018-Jun-13 07:00N 29°49' W 092°08'0 0.0
2018-Jun-13 06:30N 29°49' W 092°08'0 0.0
2018-Jun-13 06:00N 29°49' W 092°08'0 0.0
2018-Jun-13 05:30N 29°49' W 092°08'0 0.0
2018-Jun-13 05:00N 29°49' W 092°08'0 0.0
2018-Jun-13 04:30N 29°49' W 092°08'2 4.1
2018-Jun-13 04:01N 29°47' W 092°09'  
Track history (hours):
 
Tides and Currents Weather Stations Pressure Air Temp Water Temp Dewpoint Dewpoint Depression Visibility Wind Speed Wind Dir Waves Ship Positions

Rachael Burton

Owner: Alpha VesselCo, LLC, Suffolk, VA. More information available from US FCC via Universal Licensing System and Coast Guard Vessel Documentation Center.

Last reported at 2018-Jun-22 05:28 UTC. Time now 2018-Jun-22 05:33 UTC.
Position N 29°49' W 092°08'.

Length 49 m; draft 3.5 m.

Type: Fishing. MMSI: 367088210.

Date/timePositionNaut miles runAvg speedWind from/ knotsBaromVisibWave heightAir tempDewpointWater temp
2018-Jun-22 05:28N 29°49' W 092°08'0 0.0
2018-Jun-22 04:58N 29°49' W 092°08'0 0.0
2018-Jun-22 04:28N 29°49' W 092°08'0 0.0
2018-Jun-22 03:58N 29°49' W 092°08'0 0.0
2018-Jun-22 03:28N 29°49' W 092°08'0 0.0
2018-Jun-22 02:58N 29°49' W 092°08'0 0.0
2018-Jun-22 02:28N 29°49' W 092°08'0 0.0
2018-Jun-22 01:58N 29°49' W 092°08'0 0.0
2018-Jun-22 01:28N 29°49' W 092°08'0 0.0
2018-Jun-22 00:58N 29°49' W 092°08'0 0.2
2018-Jun-22 00:30N 29°49' W 092°08'3 5.0
2018-Jun-22 00:00N 29°47' W 092°09'3 6.2
2018-Jun-21 23:30N 29°45' W 092°12'5 9.5
2018-Jun-21 23:01N 29°41' W 092°15'2 0.2
2018-Jun-21 12:59N 29°40' W 092°15'4 7.7
2018-Jun-21 12:30N 29°43' W 092°15'4 8.8
2018-Jun-21 12:00N 29°46' W 092°11'3 5.5
2018-Jun-21 11:30N 29°48' W 092°08'2 2.9
2018-Jun-21 10:59N 29°49' W 092°08'0 0.0
2018-Jun-21 10:29N 29°49' W 092°08'0 0.0
2018-Jun-21 09:59N 29°49' W 092°08'0 0.0
2018-Jun-21 09:29N 29°49' W 092°08'0 0.0
2018-Jun-21 08:59N 29°49' W 092°08'0 0.0
2018-Jun-21 08:29N 29°49' W 092°08'0 0.0
2018-Jun-21 07:59N 29°49' W 092°08'0 0.0
2018-Jun-21 07:29N 29°49' W 092°08'0 0.0
2018-Jun-21 06:59N 29°49' W 092°08'0 0.0
2018-Jun-21 06:29N 29°49' W 092°08'0 0.0
2018-Jun-21 05:59N 29°49' W 092°08'0 0.0
2018-Jun-21 05:29N 29°49' W 092°08'0 0.0
2018-Jun-21 04:59N 29°49' W 092°08'0 0.0
2018-Jun-21 04:29N 29°49' W 092°08'1 1.1
2018-Jun-21 04:00N 29°49' W 092°08'3 5.3
2018-Jun-21 03:30N 29°47' W 092°10'5 9.8
2018-Jun-21 03:00N 29°44' W 092°15'4 0.7
2018-Jun-20 21:18N 29°40' W 092°15'3 9.6
2018-Jun-20 21:00N 29°43' W 092°15'5 9.1
2018-Jun-20 20:30N 29°46' W 092°11'3 6.3
2018-Jun-20 20:00N 29°48' W 092°08'2 2.6
2018-Jun-20 19:25N 29°49' W 092°08'0 0.2
2018-Jun-20 18:58N 29°49' W 092°08'0 0.0
2018-Jun-20 18:28N 29°49' W 092°08'0 0.0
2018-Jun-20 17:58N 29°49' W 092°08'0 0.0
2018-Jun-20 17:28N 29°49' W 092°08'0 0.0
2018-Jun-20 16:58N 29°49' W 092°08'0 0.0
2018-Jun-20 16:28N 29°49' W 092°08'0 0.0
2018-Jun-20 15:58N 29°49' W 092°08'0 0.2
2018-Jun-20 15:30N 29°49' W 092°08'0 0.0
2018-Jun-20 15:00N 29°49' W 092°08'0 0.0
2018-Jun-20 14:30N 29°49' W 092°08'0 0.0
2018-Jun-20 14:00N 29°49' W 092°08'0 0.0
2018-Jun-20 13:30N 29°49' W 092°08'0 0.0
2018-Jun-20 13:00N 29°49' W 092°08'0 0.0
2018-Jun-20 12:30N 29°49' W 092°08'0 0.0
2018-Jun-20 11:57N 29°49' W 092°08'0 0.0
2018-Jun-20 11:27N 29°49' W 092°08'0 0.0
2018-Jun-20 10:57N 29°49' W 092°08'0 0.0
2018-Jun-20 10:27N 29°49' W 092°08'0 0.0
2018-Jun-20 10:00N 29°49' W 092°08'0 0.0
2018-Jun-20 09:30N 29°49' W 092°08'0 0.0
2018-Jun-20 09:00N 29°49' W 092°08'0 0.0
2018-Jun-20 08:30N 29°49' W 092°08'0 0.0
2018-Jun-20 08:00N 29°49' W 092°08'0 0.0
2018-Jun-20 07:30N 29°49' W 092°08'0 0.0
2018-Jun-20 07:00N 29°49' W 092°08'0 0.0
2018-Jun-20 06:30N 29°49' W 092°08'0 0.0
2018-Jun-20 06:00N 29°49' W 092°08'0 0.0
2018-Jun-20 05:30N 29°49' W 092°08'0 0.0
2018-Jun-20 05:00N 29°49' W 092°08'0 0.0
2018-Jun-20 04:30N 29°49' W 092°08'0 0.0
2018-Jun-20 04:00N 29°49' W 092°08'0 0.0
2018-Jun-20 03:30N 29°49' W 092°08'0 0.0
2018-Jun-20 03:00N 29°49' W 092°08'0 0.0
2018-Jun-20 02:30N 29°49' W 092°08'0 0.0
2018-Jun-20 01:57N 29°49' W 092°08'0 0.0
2018-Jun-20 01:30N 29°49' W 092°08'0 0.0
2018-Jun-20 01:00N 29°49' W 092°08'0 0.0
2018-Jun-20 00:24N 29°49' W 092°08'0 0.0
2018-Jun-20 00:00N 29°49' W 092°08'0 0.0
2018-Jun-19 23:30N 29°49' W 092°08'0 0.0
2018-Jun-19 23:00N 29°49' W 092°08'0 0.0
2018-Jun-19 22:30N 29°49' W 092°08'0 0.0
2018-Jun-19 22:00N 29°49' W 092°08'0 0.0
2018-Jun-19 21:30N 29°49' W 092°08'0 0.0
2018-Jun-19 20:57N 29°49' W 092°08'0 0.0
2018-Jun-19 20:30N 29°49' W 092°08'0 0.0
2018-Jun-19 20:00N 29°49' W 092°08'0 0.0
2018-Jun-19 19:30N 29°49' W 092°08'0 0.0
2018-Jun-19 19:00N 29°49' W 092°08'0 0.0
2018-Jun-19 18:30N 29°49' W 092°08'0 0.0
2018-Jun-19 17:57N 29°49' W 092°08'0 0.0
2018-Jun-19 17:30N 29°49' W 092°08'0 0.0
2018-Jun-19 17:00N 29°49' W 092°08'0 0.0
2018-Jun-19 16:30N 29°49' W 092°08'0 0.0
2018-Jun-19 16:00N 29°49' W 092°08'0 0.0
2018-Jun-19 15:30N 29°49' W 092°08'0 0.0
2018-Jun-19 15:00N 29°49' W 092°08'0 0.0
2018-Jun-19 14:30N 29°49' W 092°08'0 0.0
2018-Jun-19 14:00N 29°49' W 092°08'0 0.0
2018-Jun-19 13:30N 29°49' W 092°08'0 0.0
2018-Jun-19 13:00N 29°49' W 092°08'0 0.0
2018-Jun-19 12:30N 29°49' W 092°08'0 0.0
2018-Jun-19 11:57N 29°49' W 092°08'0 0.0
2018-Jun-19 11:30N 29°49' W 092°08'0 0.0
2018-Jun-19 10:57N 29°49' W 092°08'0 0.0
2018-Jun-19 10:30N 29°49' W 092°08'0 0.0
2018-Jun-19 09:57N 29°49' W 092°08'0 0.0
2018-Jun-19 09:30N 29°49' W 092°08'0 0.0
2018-Jun-19 08:57N 29°49' W 092°08'0 0.0
2018-Jun-19 08:30N 29°49' W 092°08'0 0.0
2018-Jun-19 07:57N 29°49' W 092°08'0 0.0
2018-Jun-19 07:30N 29°49' W 092°08'0 0.0
2018-Jun-19 07:00N 29°49' W 092°08'0 0.0
2018-Jun-19 06:27N 29°49' W 092°08'0 0.0
2018-Jun-19 06:00N 29°49' W 092°08'0 0.0
2018-Jun-19 05:27N 29°49' W 092°08'0 0.0
2018-Jun-19 04:57N 29°49' W 092°08'0 0.0
2018-Jun-19 04:27N 29°49' W 092°08'0 0.0
2018-Jun-19 03:51N 29°49' W 092°08'0 0.0
2018-Jun-19 03:27N 29°49' W 092°08'0 0.0
2018-Jun-19 02:57N 29°49' W 092°08'0 0.0
2018-Jun-19 02:30N 29°49' W 092°08'0 0.0
2018-Jun-19 01:56N 29°49' W 092°08'0 0.0
2018-Jun-19 01:27N 29°49' W 092°08'0 0.0
2018-Jun-19 00:57N 29°49' W 092°08'0 0.0
2018-Jun-19 00:30N 29°49' W 092°08'0 0.0
2018-Jun-19 00:00N 29°49' W 092°08'0 0.0
2018-Jun-18 23:30N 29°49' W 092°08'0 0.0
2018-Jun-18 23:00N 29°49' W 092°08'0 0.0
2018-Jun-18 22:30N 29°49' W 092°08'0 0.0
2018-Jun-18 22:00N 29°49' W 092°08'0 0.0
2018-Jun-18 21:30N 29°49' W 092°08'0 0.0
2018-Jun-18 21:00N 29°49' W 092°08'0 0.0
2018-Jun-18 20:30N 29°49' W 092°08'0 0.0
2018-Jun-18 20:00N 29°49' W 092°08'0 0.0
2018-Jun-18 19:30N 29°49' W 092°08'0 0.0
2018-Jun-18 19:00N 29°49' W 092°08'0 0.0
2018-Jun-18 18:30N 29°49' W 092°08'0 0.0
2018-Jun-18 18:00N 29°49' W 092°08'0 0.0
2018-Jun-18 17:30N 29°49' W 092°08'0 0.0
2018-Jun-18 17:00N 29°49' W 092°08'0 0.0
2018-Jun-18 16:27N 29°49' W 092°08'0 0.0
2018-Jun-18 15:59N 29°49' W 092°08'0 0.0
2018-Jun-18 15:30N 29°49' W 092°08'0 0.0
2018-Jun-18 15:00N 29°49' W 092°08'0 0.0
2018-Jun-18 14:30N 29°49' W 092°08'0 0.0
2018-Jun-18 14:00N 29°49' W 092°08'0 0.0
2018-Jun-18 13:29N 29°49' W 092°08'0 0.0
2018-Jun-18 12:59N 29°49' W 092°08'0 0.0
2018-Jun-18 12:29N 29°49' W 092°08'0 0.0
2018-Jun-18 11:59N 29°49' W 092°08'0 0.0
2018-Jun-18 11:24N 29°49' W 092°08'0 0.0
2018-Jun-18 10:59N 29°49' W 092°08'0 0.0
2018-Jun-18 10:29N 29°49' W 092°08'0 0.0
2018-Jun-18 10:00N 29°49' W 092°08'0 0.0
2018-Jun-18 09:29N 29°49' W 092°08'0 0.0
2018-Jun-18 08:59N 29°49' W 092°08'0 0.0
2018-Jun-18 08:29N 29°49' W 092°08'0 0.0
2018-Jun-18 07:59N 29°49' W 092°08'0 0.0
2018-Jun-18 07:30N 29°49' W 092°08'0 0.0
2018-Jun-18 06:59N 29°49' W 092°08'0 0.0
2018-Jun-18 06:29N 29°49' W 092°08'0 0.0
2018-Jun-18 06:00N 29°49' W 092°08'0 0.0
2018-Jun-18 05:26N 29°49' W 092°08'0 0.0
2018-Jun-18 04:59N 29°49' W 092°08'0 0.0
2018-Jun-18 04:30N 29°49' W 092°08'0 0.0
2018-Jun-18 03:59N 29°49' W 092°08'0 0.0
2018-Jun-18 03:29N 29°49' W 092°08'0 0.0
2018-Jun-18 02:59N 29°49' W 092°08'0 0.0
2018-Jun-18 02:29N 29°49' W 092°08'0 0.0
2018-Jun-18 01:59N 29°49' W 092°08'0 0.0
2018-Jun-18 01:30N 29°49' W 092°08'0 0.0
2018-Jun-18 00:59N 29°49' W 092°08'0 0.0
2018-Jun-18 00:29N 29°49' W 092°08'0 0.0
2018-Jun-18 00:00N 29°49' W 092°08'0 0.0
2018-Jun-17 23:29N 29°49' W 092°08'0 0.0
2018-Jun-17 22:56N 29°49' W 092°08'0 0.0
2018-Jun-17 22:29N 29°49' W 092°08'0 0.0
2018-Jun-17 21:59N 29°49' W 092°08'0 0.0
2018-Jun-17 21:29N 29°49' W 092°08'0 0.0
2018-Jun-17 20:59N 29°49' W 092°08'0 0.0
2018-Jun-17 20:29N 29°49' W 092°08'0 0.0
2018-Jun-17 19:59N 29°49' W 092°08'0 0.0
2018-Jun-17 19:26N 29°49' W 092°08'0 0.0
2018-Jun-17 18:59N 29°49' W 092°08'0 0.0
2018-Jun-17 18:29N 29°49' W 092°08'0 0.0
2018-Jun-17 17:59N 29°49' W 092°08'0 0.0
2018-Jun-17 17:29N 29°49' W 092°08'0 0.0
2018-Jun-17 16:59N 29°49' W 092°08'0 0.0
2018-Jun-17 16:29N 29°49' W 092°08'0 0.0
2018-Jun-17 15:59N 29°49' W 092°08'0 0.0
2018-Jun-17 15:29N 29°49' W 092°08'0 0.0
2018-Jun-17 14:59N 29°49' W 092°08'0 0.0
2018-Jun-17 14:29N 29°49' W 092°08'0 0.0
2018-Jun-17 13:59N 29°49' W 092°08'0 0.0
2018-Jun-17 13:29N 29°49' W 092°08'0 0.0
2018-Jun-17 12:56N 29°49' W 092°08'0 0.0
2018-Jun-17 12:29N 29°49' W 092°08'0 0.0
2018-Jun-17 11:59N 29°49' W 092°08'0 0.0
2018-Jun-17 11:29N 29°49' W 092°08'0 0.0
2018-Jun-17 10:59N 29°49' W 092°08'0 0.0
2018-Jun-17 10:29N 29°49' W 092°08'0 0.0
2018-Jun-17 09:59N 29°49' W 092°08'0 0.0
2018-Jun-17 09:29N 29°49' W 092°08'0 0.0
2018-Jun-17 08:59N 29°49' W 092°08'0 0.0
2018-Jun-17 08:29N 29°49' W 092°08'0 0.0
2018-Jun-17 07:59N 29°49' W 092°08'0 0.0
2018-Jun-17 07:29N 29°49' W 092°08'0 0.0
2018-Jun-17 06:59N 29°49' W 092°08'0 0.0
2018-Jun-17 06:29N 29°49' W 092°08'0 0.0
2018-Jun-17 05:59N 29°49' W 092°08'0 0.0
2018-Jun-17 05:29N 29°49' W 092°08'0 0.0
2018-Jun-17 04:59N 29°49' W 092°08'0 0.0
2018-Jun-17 04:29N 29°49' W 092°08'0 0.0
2018-Jun-17 03:59N 29°49' W 092°08'0 0.0
2018-Jun-17 03:29N 29°49' W 092°08'0 0.0
2018-Jun-17 02:59N 29°49' W 092°08'0 0.0
2018-Jun-17 02:29N 29°49' W 092°08'0 0.0
2018-Jun-17 01:59N 29°49' W 092°08'0 0.0
2018-Jun-17 01:29N 29°49' W 092°08'0 0.0
2018-Jun-17 00:56N 29°49' W 092°08'0 0.0
2018-Jun-17 00:29N 29°49' W 092°08'0 0.0
2018-Jun-16 23:59N 29°49' W 092°08'0 0.0
2018-Jun-16 23:29N 29°49' W 092°08'0 0.0
2018-Jun-16 22:59N 29°49' W 092°08'0 0.0
2018-Jun-16 22:29N 29°49' W 092°08'0 0.0
2018-Jun-16 21:59N 29°49' W 092°08'0 0.0
2018-Jun-16 21:29N 29°49' W 092°08'0 0.0
2018-Jun-16 20:59N 29°49' W 092°08'0 0.0
2018-Jun-16 20:29N 29°49' W 092°08'0 0.0
2018-Jun-16 19:59N 29°49' W 092°08'0 0.0
2018-Jun-16 19:26N 29°49' W 092°08'0 0.0
2018-Jun-16 18:59N 29°49' W 092°08'0 0.0
2018-Jun-16 18:29N 29°49' W 092°08'0 0.0
2018-Jun-16 17:59N 29°49' W 092°08'0 0.0
2018-Jun-16 17:29N 29°49' W 092°08'0 0.0
2018-Jun-16 16:59N 29°49' W 092°08'0 0.0
2018-Jun-16 16:29N 29°49' W 092°08'0 0.0
2018-Jun-16 15:59N 29°49' W 092°08'0 0.0
2018-Jun-16 15:29N 29°49' W 092°08'0 0.0
2018-Jun-16 14:59N 29°49' W 092°08'0 0.0
2018-Jun-16 14:29N 29°49' W 092°08'0 0.0
2018-Jun-16 13:59N 29°49' W 092°08'0 0.0
2018-Jun-16 13:29N 29°49' W 092°08'0 0.0
2018-Jun-16 12:59N 29°49' W 092°08'0 0.0
2018-Jun-16 12:26N 29°49' W 092°08'0 0.0
2018-Jun-16 11:59N 29°49' W 092°08'0 0.0
2018-Jun-16 11:29N 29°49' W 092°08'0 0.0
2018-Jun-16 09:14N 29°49' W 092°08'0 0.0
2018-Jun-16 08:08N 29°49' W 092°08'0 0.0
2018-Jun-16 07:44N 29°49' W 092°08'0 0.0
2018-Jun-16 06:14N 29°49' W 092°08'0 0.0
2018-Jun-16 05:44N 29°49' W 092°08'0 0.0
2018-Jun-16 04:02N 29°49' W 092°08'0 0.1
2018-Jun-16 03:56N 29°49' W 092°08'0 0.0
2018-Jun-16 03:26N 29°49' W 092°08'0 0.0
2018-Jun-16 02:50N 29°49' W 092°08'0 0.0
2018-Jun-16 02:26N 29°49' W 092°08'0 0.0
2018-Jun-16 01:59N 29°49' W 092°08'0 0.0
2018-Jun-16 01:29N 29°49' W 092°08'0 0.0
2018-Jun-16 00:59N 29°49' W 092°08'0 0.0
2018-Jun-16 00:29N 29°49' W 092°08'0 0.0
2018-Jun-15 23:56N 29°49' W 092°08'0 0.0
2018-Jun-15 23:29N 29°49' W 092°08'0 0.0
2018-Jun-15 22:59N 29°49' W 092°08'0 0.0
2018-Jun-15 22:26N 29°49' W 092°08'0 0.0
2018-Jun-15 21:56N 29°49' W 092°08'0 0.0
2018-Jun-15 21:29N 29°49' W 092°08'0 0.0
2018-Jun-15 20:59N 29°49' W 092°08'0 0.0
2018-Jun-15 20:29N 29°49' W 092°08'0 0.0
2018-Jun-15 19:59N 29°49' W 092°08'0 0.0
2018-Jun-15 19:29N 29°49' W 092°08'0 0.0
2018-Jun-15 18:59N 29°49' W 092°08'1 2.4
2018-Jun-15 18:30N 29°48' W 092°08'3 5.3
2018-Jun-15 18:00N 29°46' W 092°10'4 8.9
2018-Jun-15 17:30N 29°44' W 092°15'4 7.8
2018-Jun-15 16:58N 29°40' W 092°15'2 0.5
2018-Jun-15 12:00N 29°38' W 092°16'4 7.1
2018-Jun-15 11:30N 29°41' W 092°15'4 7.7
2018-Jun-15 11:00N 29°45' W 092°13'4 8.0
2018-Jun-15 10:30N 29°47' W 092°10'2 4.9
2018-Jun-15 10:00N 29°49' W 092°08'1 1.0
2018-Jun-15 09:30N 29°49' W 092°08'0 0.0
2018-Jun-15 09:00N 29°49' W 092°08'0 0.0
2018-Jun-15 08:30N 29°49' W 092°08'0 0.0
2018-Jun-15 08:00N 29°49' W 092°08'0 0.0
2018-Jun-15 07:30N 29°49' W 092°08'0 0.0
2018-Jun-15 07:00N 29°49' W 092°08'0 0.2
2018-Jun-15 06:23N 29°49' W 092°08'0 0.0
2018-Jun-15 05:59N 29°49' W 092°08'0 0.0
2018-Jun-15 05:29N 29°49' W 092°08'0 0.0
2018-Jun-15 04:59N 29°49' W 092°08'0 0.0
2018-Jun-15 04:29N 29°49' W 092°08'0 0.0
2018-Jun-15 03:59N 29°49' W 092°08'0 0.0
2018-Jun-15 03:29N 29°49' W 092°08'0 0.0
2018-Jun-15 02:59N 29°49' W 092°08'0 0.0
2018-Jun-15 02:29N 29°49' W 092°08'0 0.0
2018-Jun-15 01:59N 29°49' W 092°08'0 0.0
2018-Jun-15 01:29N 29°49' W 092°08'0 0.0
2018-Jun-15 00:56N 29°49' W 092°08'0 0.0
2018-Jun-15 00:29N 29°49' W 092°08'0 0.0
2018-Jun-14 23:59N 29°49' W 092°08'0 0.0
2018-Jun-14 23:29N 29°49' W 092°08'2 3.5
2018-Jun-14 23:01N 29°48' W 092°08'3 5.8
2018-Jun-14 22:30N 29°46' W 092°11'4 8.0
2018-Jun-14 22:00N 29°43' W 092°15'9 0.3
2018-Jun-13 16:05N 29°42' W 092°04'2 7.8
2018-Jun-13 15:48N 29°43' W 092°06'2 8.3
2018-Jun-13 15:30N 29°45' W 092°07'2 4.9
2018-Jun-13 15:00N 29°48' W 092°08'2 1.2
2018-Jun-13 13:44N 29°49' W 092°08'0 0.0
2018-Jun-13 13:26N 29°49' W 092°08'0 0.0
2018-Jun-13 12:59N 29°49' W 092°08'0 0.0
2018-Jun-13 12:29N 29°49' W 092°08'0 0.0
2018-Jun-13 11:59N 29°49' W 092°08'0 0.0
2018-Jun-13 11:29N 29°49' W 092°08'0 0.0
2018-Jun-13 10:59N 29°49' W 092°08'0 0.0
2018-Jun-13 10:29N 29°49' W 092°08'0 0.0
2018-Jun-13 09:56N 29°49' W 092°08'0 0.0
2018-Jun-13 09:26N 29°49' W 092°08'0 0.0
2018-Jun-13 08:56N 29°49' W 092°08'0 0.0
2018-Jun-13 08:29N 29°49' W 092°08'0 0.0
2018-Jun-13 07:56N 29°49' W 092°08'0 0.3
2018-Jun-13 07:30N 29°49' W 092°08'0 0.0
2018-Jun-13 07:00N 29°49' W 092°08'0 0.0
2018-Jun-13 06:30N 29°49' W 092°08'0 0.0
2018-Jun-13 06:00N 29°49' W 092°08'0 0.0
2018-Jun-13 05:30N 29°49' W 092°08'0 0.0
2018-Jun-13 05:00N 29°49' W 092°08'0 0.0
2018-Jun-13 04:30N 29°49' W 092°08'2 4.1
2018-Jun-13 04:01N 29°47' W 092°09'  

Dump ship's entire track history